KJXN/JXN METAR and TAF weather

Enter ICAO airport designator
Station Type Date Time Source
KJXN METAR 2020/09/20 05:56 UTC NOAA

KJXN 200556Z AUTO 03003KT CLR 05/03 A3041 RMK AO2 SLP301 T00500033 10139 20050 51012 $


Station Type Date Time Source
KJXN Decoded METAR 2020/09/20 05:56 UTC NOAA

JACKSON COUNTY-REYNOLDS, MI, United States (KJXN) 42-16N 084-28W
Sep 20, 2020 - 01:56 AM EDT / 2020.09.20 0556 UTC
Wind: from the NNE (030 degrees) at 3 MPH (3 KT):0
Sky conditions: clear
Temperature: 41.0 F (5.0 C)
Dew Point: 37.9 F (3.3 C)
Relative Humidity: 88%
Pressure (altimeter): 30.41 in. Hg (1029 hPa)
Pressure tendency: 0.04 inches (1.2 hPa) higher than three hours ago
ob: KJXN 200556Z AUTO 03003KT CLR 05/03 A3041 RMK AO2 SLP301 T00500033 10139 20050 51012
cycle: 6

Station Type Date Time Source
KJXN TAF 2020/09/20 06:42 UTC NOAA

TAF KJXN 200540Z 2006/2106 00000KT P6SM SKC
FM201400 12007KT P6SM SKC
FM210100 VRB03KT P6SM SKC

Example: see airport list